Time;durP1;ratioP1;P1;durP2;ratioP2;P2;SDS_P1;SDS_P2;PMS_P1;PMS_P2;Temp;Humidity;BMP_temperature;BMP_pressure;BME280_temperature;BME280_humidity;BME280_pressure;Samples;Min_cycle;Max_cycle;Signal;HPM_P1;HPM_P2
2022/02/18 00:00:14;;;;;;;9.50;1.50;;;;;;;;;;5020682;28;20057;-73
2022/02/18 00:02:40;;;;;;;7.73;1.33;;;;;;;;;;5020535;28;20036;-73
2022/02/18 00:05:05;;;;;;;7.60;1.93;;;;;;;;;;5018400;28;20049;-73
2022/02/18 00:07:31;;;;;;;5.77;1.10;;;;;;;;;;5021552;28;20056;-73
2022/02/18 00:09:56;;;;;;;8.80;1.80;;;;;;;;;;5025849;28;20031;-73
2022/02/18 00:12:21;;;;;;;8.30;1.50;;;;;;;;;;5018487;28;20029;-73
2022/02/18 00:14:47;;;;;;;7.03;1.53;;;;;;;;;;5019948;28;20469;-73
2022/02/18 00:17:12;;;;;;;7.87;1.63;;;;;;;;;;5021088;28;20026;-73
2022/02/18 00:19:37;;;;;;;6.30;1.53;;;;;;;;;;5017615;28;20559;-73
2022/02/18 00:22:03;;;;;;;11.07;1.80;;;;;;;;;;5016941;28;20425;-73
2022/02/18 00:24:28;;;;;;;5.67;1.73;;;;;;;;;;5022930;28;20029;-73
2022/02/18 00:26:54;;;;;;;3.80;1.00;;;;;;;;;;5016141;28;20330;-73
2022/02/18 00:29:19;;;;;;;7.87;2.03;;;;;;;;;;5023227;28;20607;-73
2022/02/18 00:31:44;;;;;;;5.30;1.63;;;;;;;;;;5026132;28;20095;-73
2022/02/18 00:34:09;;;;;;;9.50;1.87;;;;;;;;;;5024523;28;20025;-73
2022/02/18 00:36:35;;;;;;;10.17;2.40;;;;;;;;;;5023104;28;20228;-73
2022/02/18 00:39:00;;;;;;;9.90;1.80;;;;;;;;;;5024974;28;20405;-74
2022/02/18 00:41:25;;;;;;;7.00;1.80;;;;;;;;;;5023339;28;20349;-73
2022/02/18 00:43:51;;;;;;;12.37;1.67;;;;;;;;;;5028281;28;23130;-73
2022/02/18 00:46:16;;;;;;;6.20;2.40;;;;;;;;;;5023077;28;20033;-73
2022/02/18 00:48:41;;;;;;;11.03;1.67;;;;;;;;;;5028533;28;20040;-73
2022/02/18 00:51:07;;;;;;;7.93;2.37;;;;;;;;;;5024375;28;20140;-73
2022/02/18 00:53:32;;;;;;;11.03;2.47;;;;;;;;;;5025277;28;20098;-73
2022/02/18 00:55:58;;;;;;;6.87;2.37;;;;;;;;;;5020292;28;20510;-73
2022/02/18 00:58:23;;;;;;;8.10;1.93;;;;;;;;;;5017992;28;20030;-73
2022/02/18 01:00:49;;;;;;;9.53;1.83;;;;;;;;;;5022121;28;20028;-73
2022/02/18 01:03:15;;;;;;;7.97;1.80;;;;;;;;;;5016075;28;20030;-73
2022/02/18 01:05:40;;;;;;;15.93;2.43;;;;;;;;;;5019172;28;20516;-73
2022/02/18 01:08:05;;;;;;;5.20;1.73;;;;;;;;;;5019623;28;20145;-73
2022/02/18 01:10:30;;;;;;;10.43;2.43;;;;;;;;;;5020873;28;20022;-73
2022/02/18 01:12:56;;;;;;;13.70;1.97;;;;;;;;;;5020907;28;20043;-73
2022/02/18 01:15:21;;;;;;;10.10;1.90;;;;;;;;;;5019763;28;20429;-73
2022/02/18 01:17:47;;;;;;;25.23;3.33;;;;;;;;;;5019683;28;20033;-73
2022/02/18 01:20:12;;;;;;;9.73;2.40;;;;;;;;;;5018862;28;20033;-73
2022/02/18 01:22:37;;;;;;;13.90;2.53;;;;;;;;;;5020204;28;20034;-73
2022/02/18 01:25:06;;;;;;;9.63;2.03;;;;;;;;;;5021003;28;20103;-72
2022/02/18 01:27:32;;;;;;;11.90;3.10;;;;;;;;;;5020253;28;20476;-72
2022/02/18 01:29:57;;;;;;;10.77;2.40;;;;;;;;;;5020524;28;20156;-73
2022/02/18 01:32:22;;;;;;;9.67;2.30;;;;;;;;;;5020866;28;20052;-73
2022/02/18 01:34:47;;;;;;;8.93;2.77;;;;;;;;;;5022566;28;20122;-72
2022/02/18 01:37:13;;;;;;;15.10;3.23;;;;;;;;;;5014775;28;20037;-73
2022/02/18 01:39:38;;;;;;;10.27;2.53;;;;;;;;;;5018585;28;20041;-73
2022/02/18 01:42:03;;;;;;;16.07;2.90;;;;;;;;;;5020923;28;20030;-72
2022/02/18 01:44:36;;;;;;;8.83;3.03;;;;;;;;;;5024739;28;20025;-72
2022/02/18 01:47:02;;;;;;;13.53;3.83;;;;;;;;;;5015010;28;20026;-72
2022/02/18 01:49:27;;;;;;;14.90;3.93;;;;;;;;;;5017140;28;20025;-73
2022/02/18 01:51:53;;;;;;;10.73;2.90;;;;;;;;;;5020021;28;20043;-72
2022/02/18 01:54:18;;;;;;;11.67;2.53;;;;;;;;;;5016181;28;20021;-72
2022/02/18 01:56:44;;;;;;;8.37;2.83;;;;;;;;;;5025024;28;20103;-72
2022/02/18 01:59:09;;;;;;;17.63;3.13;;;;;;;;;;5026591;28;20851;-72
2022/02/18 02:01:34;;;;;;;12.00;2.63;;;;;;;;;;5024617;28;20029;-72
2022/02/18 02:03:59;;;;;;;13.40;3.10;;;;;;;;;;5033757;22;20060;-68
2022/02/18 02:06:25;;;;;;;17.30;3.43;;;;;;;;;;5017598;28;20249;-68
2022/02/18 02:08:50;;;;;;;16.17;3.83;;;;;;;;;;5020732;28;20059;-68
2022/02/18 02:11:15;;;;;;;18.47;3.33;;;;;;;;;;5017294;28;20033;-67
2022/02/18 02:13:44;;;;;;;13.90;2.70;;;;;;;;;;5019674;28;20056;-67
2022/02/18 02:16:12;;;;;;;8.57;2.53;;;;;;;;;;5019915;28;20268;-68
2022/02/18 02:18:37;;;;;;;13.17;3.10;;;;;;;;;;5019740;28;20040;-67
2022/02/18 02:21:03;;;;;;;16.47;3.77;;;;;;;;;;5019988;28;20033;-68
2022/02/18 02:23:28;;;;;;;23.87;3.73;;;;;;;;;;5021706;28;20464;-68
2022/02/18 02:25:54;;;;;;;11.30;3.50;;;;;;;;;;5020655;28;20667;-68
2022/02/18 02:28:19;;;;;;;10.80;2.60;;;;;;;;;;5019581;28;20051;-67
2022/02/18 02:30:44;;;;;;;17.70;4.10;;;;;;;;;;5017815;28;20033;-68
2022/02/18 02:33:10;;;;;;;16.93;2.77;;;;;;;;;;5021222;28;20474;-68
2022/02/18 02:35:35;;;;;;;23.03;3.63;;;;;;;;;;5021024;28;20108;-68
2022/02/18 02:38:01;;;;;;;14.27;3.27;;;;;;;;;;5021866;28;20377;-68
2022/02/18 02:40:26;;;;;;;8.73;2.67;;;;;;;;;;5019131;28;20023;-68
2022/02/18 02:42:51;;;;;;;14.87;2.70;;;;;;;;;;5019037;28;20193;-68
2022/02/18 02:45:16;;;;;;;13.93;3.60;;;;;;;;;;5018253;28;20326;-68
2022/02/18 02:47:43;;;;;;;19.97;4.47;;;;;;;;;;5023464;28;20267;-68
2022/02/18 02:50:08;;;;;;;15.43;3.10;;;;;;;;;;5020585;28;20025;-68
2022/02/18 02:52:34;;;;;;;13.93;2.60;;;;;;;;;;5017343;28;20131;-67
2022/02/18 02:54:59;;;;;;;10.37;3.13;;;;;;;;;;5018837;28;20978;-68
2022/02/18 02:57:24;;;;;;;21.60;3.77;;;;;;;;;;5015168;28;20031;-68
2022/02/18 02:59:49;;;;;;;15.13;2.60;;;;;;;;;;5023538;28;20171;-68
2022/02/18 03:02:15;;;;;;;10.80;3.13;;;;;;;;;;5021093;28;20108;-67
2022/02/18 03:04:40;;;;;;;9.50;2.30;;;;;;;;;;5010738;28;20257;-67
2022/02/18 03:07:05;;;;;;;7.43;2.33;;;;;;;;;;5016314;28;20021;-68
2022/02/18 03:09:31;;;;;;;9.17;2.93;;;;;;;;;;5018515;28;20025;-68
2022/02/18 03:11:56;;;;;;;11.73;3.10;;;;;;;;;;5016662;28;20060;-68
2022/02/18 03:14:21;;;;;;;10.67;2.93;;;;;;;;;;5017383;28;20037;-67
2022/02/18 03:16:46;;;;;;;20.73;3.60;;;;;;;;;;5015350;28;20049;-68
2022/02/18 03:19:12;;;;;;;16.03;2.97;;;;;;;;;;5016931;28;20493;-68
2022/02/18 03:21:37;;;;;;;20.80;4.20;;;;;;;;;;5015597;28;20786;-68
2022/02/18 03:24:02;;;;;;;16.30;3.03;;;;;;;;;;5017149;28;20421;-68
2022/02/18 03:26:27;;;;;;;12.57;2.67;;;;;;;;;;5013377;28;20025;-68
2022/02/18 03:28:53;;;;;;;18.20;2.90;;;;;;;;;;5017881;28;20354;-68
2022/02/18 03:31:18;;;;;;;17.50;3.47;;;;;;;;;;5014589;28;20060;-68
2022/02/18 03:33:44;;;;;;;16.43;2.90;;;;;;;;;;5016844;28;20286;-68
2022/02/18 03:36:09;;;;;;;19.83;3.43;;;;;;;;;;5015542;28;20536;-68
2022/02/18 03:38:34;;;;;;;11.63;2.53;;;;;;;;;;5014159;28;20018;-68
2022/02/18 03:41:04;;;;;;;10.23;2.87;;;;;;;;;;5013104;28;20428;-70
2022/02/18 03:43:29;;;;;;;17.90;2.80;;;;;;;;;;5012244;28;20033;-68
2022/02/18 03:45:54;;;;;;;11.43;2.67;;;;;;;;;;5018706;28;20410;-69
2022/02/18 03:48:26;;;;;;;17.53;3.10;;;;;;;;;;5019696;28;20028;-69
2022/02/18 03:50:51;;;;;;;13.00;2.72;;;;;;;;;;5010915;28;20299;-69
2022/02/18 03:53:16;;;;;;;16.87;3.53;;;;;;;;;;5017033;28;20195;-70
2022/02/18 03:55:42;;;;;;;11.23;3.37;;;;;;;;;;5019709;28;20091;-70
2022/02/18 03:58:07;;;;;;;14.07;2.93;;;;;;;;;;5021284;28;20021;-70
2022/02/18 04:00:35;;;;;;;17.13;2.90;;;;;;;;;;5027623;28;20021;-72
2022/02/18 04:03:00;;;;;;;9.80;2.27;;;;;;;;;;5022039;28;20159;-70
2022/02/18 04:05:26;;;;;;;7.40;1.83;;;;;;;;;;5018339;28;20301;-70
2022/02/18 04:07:53;;;;;;;10.13;2.27;;;;;;;;;;5017960;28;20025;-68
2022/02/18 04:10:18;;;;;;;5.53;1.93;;;;;;;;;;5017748;28;20025;-69
2022/02/18 04:12:44;;;;;;;10.87;2.93;;;;;;;;;;5019126;28;20622;-68
2022/02/18 04:15:12;;;;;;;14.53;3.07;;;;;;;;;;5018379;28;20055;-69
2022/02/18 04:17:37;;;;;;;10.13;2.43;;;;;;;;;;5024418;28;20075;-68
2022/02/18 04:20:03;;;;;;;7.13;2.00;;;;;;;;;;5018566;28;20022;-68
2022/02/18 04:22:28;;;;;;;11.27;2.63;;;;;;;;;;5019082;28;20116;-68
2022/02/18 04:24:54;;;;;;;15.47;2.00;;;;;;;;;;5017376;28;20511;-68
2022/02/18 04:27:19;;;;;;;8.33;1.90;;;;;;;;;;5017407;28;20029;-68
2022/02/18 04:29:44;;;;;;;10.47;2.17;;;;;;;;;;5013541;28;20029;-68
2022/02/18 04:32:10;;;;;;;9.73;2.20;;;;;;;;;;5016929;28;20038;-68
2022/02/18 04:34:35;;;;;;;22.43;3.23;;;;;;;;;;5020378;28;20084;-68
2022/02/18 04:37:00;;;;;;;13.87;2.37;;;;;;;;;;5018171;28;20056;-68
2022/02/18 04:39:25;;;;;;;18.47;2.67;;;;;;;;;;5018433;28;20072;-68
2022/02/18 04:41:51;;;;;;;10.70;2.47;;;;;;;;;;5018582;28;20446;-68
2022/02/18 04:44:16;;;;;;;12.63;2.73;;;;;;;;;;5019206;28;20021;-68
2022/02/18 04:46:42;;;;;;;11.23;2.30;;;;;;;;;;5014266;28;20405;-68
2022/02/18 04:49:07;;;;;;;9.77;2.03;;;;;;;;;;5017234;28;20574;-68
2022/02/18 04:51:33;;;;;;;15.23;2.67;;;;;;;;;;5012342;28;20245;-68
2022/02/18 04:53:58;;;;;;;10.67;2.17;;;;;;;;;;5013133;28;20026;-68
2022/02/18 04:56:23;;;;;;;14.80;2.30;;;;;;;;;;5011441;28;20025;-68
2022/02/18 04:58:48;;;;;;;9.67;2.00;;;;;;;;;;5013861;28;20021;-68
2022/02/18 05:01:16;;;;;;;9.57;2.30;;;;;;;;;;5012450;28;20293;-68
2022/02/18 05:03:41;;;;;;;17.97;2.70;;;;;;;;;;5012941;28;20037;-68
2022/02/18 05:06:06;;;;;;;8.97;2.37;;;;;;;;;;5017158;28;20026;-68
2022/02/18 05:08:32;;;;;;;17.73;2.80;;;;;;;;;;5020639;28;20028;-68
2022/02/18 05:10:57;;;;;;;10.97;2.20;;;;;;;;;;5019168;28;20033;-68
2022/02/18 05:13:23;;;;;;;18.47;2.60;;;;;;;;;;5019543;28;20283;-68
2022/02/18 05:15:48;;;;;;;13.00;2.77;;;;;;;;;;5018030;28;20448;-68
2022/02/18 05:18:13;;;;;;;19.33;2.67;;;;;;;;;;5019328;28;20026;-67
2022/02/18 05:20:39;;;;;;;11.87;2.50;;;;;;;;;;5018505;28;20029;-68
2022/02/18 05:23:04;;;;;;;8.53;2.90;;;;;;;;;;5019719;28;20037;-68
2022/02/18 05:25:31;;;;;;;15.43;3.23;;;;;;;;;;5018504;28;20009;-68
2022/02/18 05:27:57;;;;;;;11.37;3.13;;;;;;;;;;5017534;28;20035;-68
2022/02/18 05:30:22;;;;;;;13.03;2.30;;;;;;;;;;5018528;28;20021;-68
2022/02/18 05:32:47;;;;;;;25.13;4.70;;;;;;;;;;5019386;28;20033;-68
2022/02/18 05:35:12;;;;;;;15.63;3.30;;;;;;;;;;5015796;28;20372;-68
2022/02/18 05:37:38;;;;;;;12.03;3.07;;;;;;;;;;5013691;28;20123;-68
2022/02/18 05:40:03;;;;;;;11.27;3.47;;;;;;;;;;5017004;28;20815;-68
2022/02/18 05:42:29;;;;;;;14.90;3.17;;;;;;;;;;5016789;28;20013;-68
2022/02/18 05:44:54;;;;;;;9.43;2.60;;;;;;;;;;5018816;28;20088;-68
2022/02/18 05:47:19;;;;;;;14.97;2.97;;;;;;;;;;5013954;28;20112;-68
2022/02/18 05:49:44;;;;;;;11.30;3.07;;;;;;;;;;5015881;28;20095;-68
2022/02/18 05:52:10;;;;;;;17.73;3.63;;;;;;;;;;5011311;28;20029;-68
2022/02/18 05:54:35;;;;;;;12.57;3.07;;;;;;;;;;5018347;28;20382;-68
2022/02/18 05:57:01;;;;;;;11.00;2.47;;;;;;;;;;5017554;28;20293;-68
2022/02/18 05:59:26;;;;;;;15.63;3.47;;;;;;;;;;5019692;28;20104;-68
2022/02/18 06:01:51;;;;;;;8.73;3.10;;;;;;;;;;5015243;28;20310;-68
2022/02/18 06:04:16;;;;;;;11.73;2.77;;;;;;;;;;5014209;28;20072;-68
2022/02/18 06:06:42;;;;;;;9.23;2.43;;;;;;;;;;5016858;28;20056;-68
2022/02/18 06:09:07;;;;;;;11.17;3.20;;;;;;;;;;5019057;28;20256;-68
2022/02/18 06:11:33;;;;;;;14.90;3.57;;;;;;;;;;5014666;28;20053;-68
2022/02/18 06:13:58;;;;;;;10.77;2.87;;;;;;;;;;5014845;28;20473;-67
2022/02/18 06:16:27;;;;;;;18.57;3.33;;;;;;;;;;5012558;28;20503;-68
2022/02/18 06:18:52;;;;;;;19.77;4.80;;;;;;;;;;5008475;28;20013;-67
2022/02/18 06:21:18;;;;;;;15.70;4.10;;;;;;;;;;5012220;28;20031;-67
2022/02/18 06:23:43;;;;;;;14.97;3.40;;;;;;;;;;5017488;28;20028;-67
2022/02/18 06:26:09;;;;;;;11.00;3.00;;;;;;;;;;5012400;28;20026;-67
2022/02/18 06:28:34;;;;;;;23.67;3.97;;;;;;;;;;5011993;28;20167;-67
2022/02/18 06:30:59;;;;;;;19.13;4.93;;;;;;;;;;5010033;28;20052;-67
2022/02/18 06:33:25;;;;;;;12.27;3.90;;;;;;;;;;5010993;28;20441;-67
2022/02/18 06:35:50;;;;;;;14.53;4.07;;;;;;;;;;5012322;28;20113;-67
2022/02/18 06:38:15;;;;;;;19.23;5.40;;;;;;;;;;5011527;28;20033;-67
2022/02/18 06:40:40;;;;;;;8.83;3.60;;;;;;;;;;5010373;28;20600;-67
2022/02/18 06:43:06;;;;;;;17.70;4.00;;;;;;;;;;5010746;28;20030;-68
2022/02/18 06:45:31;;;;;;;16.67;3.83;;;;;;;;;;5010546;28;20025;-68
2022/02/18 06:47:57;;;;;;;16.77;4.30;;;;;;;;;;5010098;28;20059;-67
2022/02/18 06:50:22;;;;;;;15.13;4.03;;;;;;;;;;5010490;28;20197;-67
2022/02/18 06:52:48;;;;;;;19.60;3.93;;;;;;;;;;5010666;28;20112;-67
2022/02/18 06:55:14;;;;;;;13.33;4.50;;;;;;;;;;5010482;28;20024;-67
2022/02/18 06:57:40;;;;;;;15.97;4.10;;;;;;;;;;5010978;28;20025;-67
2022/02/18 07:00:06;;;;;;;22.40;5.30;;;;;;;;;;5010845;28;20026;-67
2022/02/18 07:02:31;;;;;;;20.73;5.27;;;;;;;;;;5008759;28;20017;-67
2022/02/18 07:04:56;;;;;;;14.67;4.07;;;;;;;;;;5012784;28;20042;-67
2022/02/18 07:07:21;;;;;;;16.07;4.77;;;;;;;;;;5016878;28;20025;-66
2022/02/18 07:09:47;;;;;;;20.67;3.97;;;;;;;;;;5018182;28;20044;-67
2022/02/18 07:12:12;;;;;;;14.80;3.73;;;;;;;;;;5014735;28;20105;-67
2022/02/18 07:14:37;;;;;;;15.73;4.30;;;;;;;;;;5018051;28;20647;-67
2022/02/18 07:17:03;;;;;;;17.33;4.87;;;;;;;;;;5015757;28;20486;-66
2022/02/18 07:19:29;;;;;;;21.07;4.33;;;;;;;;;;5017722;28;20029;-66
2022/02/18 07:21:56;;;;;;;18.93;5.63;;;;;;;;;;5016606;28;21337;-67
2022/02/18 07:24:21;;;;;;;18.47;4.93;;;;;;;;;;5018327;28;20087;-67
2022/02/18 07:26:46;;;;;;;13.30;3.90;;;;;;;;;;5012678;28;20025;-67
2022/02/18 07:29:12;;;;;;;23.63;5.83;;;;;;;;;;5017605;28;20555;-67
2022/02/18 07:31:37;;;;;;;25.53;4.50;;;;;;;;;;5016030;28;20029;-67
2022/02/18 07:34:02;;;;;;;11.57;4.97;;;;;;;;;;5011822;28;20390;-67
2022/02/18 07:36:27;;;;;;;17.93;6.40;;;;;;;;;;5011308;28;20047;-67
2022/02/18 07:38:53;;;;;;;19.40;5.77;;;;;;;;;;5018107;28;20095;-67
2022/02/18 07:41:18;;;;;;;19.30;4.97;;;;;;;;;;5012589;28;20177;-67
2022/02/18 07:43:43;;;;;;;19.87;4.83;;;;;;;;;;5012338;28;20368;-67
2022/02/18 07:46:09;;;;;;;14.27;3.70;;;;;;;;;;5001228;28;20029;-67
2022/02/18 07:48:34;;;;;;;23.43;5.00;;;;;;;;;;5014915;28;20452;-67
2022/02/18 07:50:59;;;;;;;20.87;5.00;;;;;;;;;;5016373;28;20025;-67
2022/02/18 07:53:24;;;;;;;20.30;5.10;;;;;;;;;;5017639;28;20095;-67
2022/02/18 07:55:50;;;;;;;16.30;5.00;;;;;;;;;;5017449;28;20037;-67
2022/02/18 07:58:15;;;;;;;14.90;5.37;;;;;;;;;;5014249;28;20274;-67
2022/02/18 08:00:41;;;;;;;20.43;5.70;;;;;;;;;;5013411;28;20481;-67
2022/02/18 08:03:06;;;;;;;26.80;7.17;;;;;;;;;;5008165;28;20068;-67
2022/02/18 08:05:31;;;;;;;22.87;5.83;;;;;;;;;;5008257;28;20045;-67
2022/02/18 08:07:58;;;;;;;18.23;6.40;;;;;;;;;;5008776;28;20211;-67
2022/02/18 08:10:24;;;;;;;23.47;6.53;;;;;;;;;;5012851;28;20185;-67
2022/02/18 08:12:49;;;;;;;20.47;6.43;;;;;;;;;;5012259;28;20033;-67
2022/02/18 08:15:14;;;;;;;24.17;6.00;;;;;;;;;;5014736;28;20044;-66
2022/02/18 08:17:40;;;;;;;22.67;5.70;;;;;;;;;;5016099;28;20045;-66
2022/02/18 08:20:06;;;;;;;18.03;5.83;;;;;;;;;;5015727;28;20029;-66
2022/02/18 08:22:32;;;;;;;23.03;6.53;;;;;;;;;;5016573;28;20051;-66
2022/02/18 08:24:57;;;;;;;24.50;6.47;;;;;;;;;;5015384;28;20021;-66
2022/02/18 08:27:22;;;;;;;13.33;5.97;;;;;;;;;;5011118;28;20616;-66
2022/02/18 08:29:48;;;;;;;22.60;6.57;;;;;;;;;;5014176;28;20466;-67
2022/02/18 08:32:13;;;;;;;22.77;6.27;;;;;;;;;;5017502;28;20281;-67
2022/02/18 08:34:38;;;;;;;21.03;6.43;;;;;;;;;;5013603;28;20029;-67
2022/02/18 08:37:04;;;;;;;25.43;6.77;;;;;;;;;;5015569;28;20036;-67
2022/02/18 08:39:29;;;;;;;25.37;6.13;;;;;;;;;;5008512;28;20398;-67
2022/02/18 08:41:54;;;;;;;16.33;6.60;;;;;;;;;;5010830;28;20049;-67
2022/02/18 08:44:19;;;;;;;16.77;5.07;;;;;;;;;;5010243;28;20035;-67
2022/02/18 08:46:45;;;;;;;18.93;5.90;;;;;;;;;;5011614;28;20054;-67
2022/02/18 08:49:10;;;;;;;20.00;6.37;;;;;;;;;;5009306;28;20452;-67
2022/02/18 08:51:35;;;;;;;21.33;6.03;;;;;;;;;;5008674;28;20033;-67
2022/02/18 08:54:01;;;;;;;22.27;6.13;;;;;;;;;;5012783;28;20191;-67
2022/02/18 08:56:27;;;;;;;20.13;5.33;;;;;;;;;;5012355;28;20100;-67
2022/02/18 08:58:53;;;;;;;20.33;4.60;;;;;;;;;;5017397;28;20501;-67
2022/02/18 09:01:18;;;;;;;13.23;4.77;;;;;;;;;;5011906;28;20036;-66
2022/02/18 09:03:44;;;;;;;20.40;4.97;;;;;;;;;;5010040;28;20552;-66
2022/02/18 09:06:09;;;;;;;16.00;5.43;;;;;;;;;;5014665;28;20509;-68
2022/02/18 09:08:34;;;;;;;15.77;4.40;;;;;;;;;;5016795;28;20361;-68
2022/02/18 09:10:59;;;;;;;16.10;5.20;;;;;;;;;;5014127;28;20687;-68
2022/02/18 09:13:25;;;;;;;16.20;5.13;;;;;;;;;;5017368;28;20034;-68
2022/02/18 09:15:51;;;;;;;20.37;5.77;;;;;;;;;;5014150;28;20498;-68
2022/02/18 09:18:17;;;;;;;17.03;4.37;;;;;;;;;;5017580;28;20458;-68
2022/02/18 09:20:44;;;;;;;18.93;5.03;;;;;;;;;;5014589;28;20041;-66
2022/02/18 09:23:09;;;;;;;15.53;3.80;;;;;;;;;;5016646;28;20033;-66
2022/02/18 09:25:35;;;;;;;22.17;4.87;;;;;;;;;;5015851;28;20029;-65
2022/02/18 09:28:01;;;;;;;13.13;3.80;;;;;;;;;;5016709;28;20032;-66
2022/02/18 09:30:26;;;;;;;19.43;4.30;;;;;;;;;;5015450;28;20064;-66
2022/02/18 09:32:51;;;;;;;13.67;4.40;;;;;;;;;;5017364;28;20041;-66
2022/02/18 09:35:17;;;;;;;20.00;4.50;;;;;;;;;;5015940;28;20065;-66
2022/02/18 09:37:42;;;;;;;19.77;4.97;;;;;;;;;;5016087;28;20025;-66
2022/02/18 09:40:08;;;;;;;18.73;3.60;;;;;;;;;;5012212;28;20457;-66
2022/02/18 09:42:36;;;;;;;18.53;4.97;;;;;;;;;;5012997;28;20459;-66
2022/02/18 09:45:03;;;;;;;15.67;3.93;;;;;;;;;;5014258;28;20212;-66
2022/02/18 09:47:28;;;;;;;15.27;3.57;;;;;;;;;;5006714;28;20409;-66
2022/02/18 09:49:54;;;;;;;23.50;4.67;;;;;;;;;;5015626;28;20033;-66
2022/02/18 09:52:19;;;;;;;13.60;3.70;;;;;;;;;;5014947;28;20625;-66
2022/02/18 09:54:46;;;;;;;12.80;3.43;;;;;;;;;;5015392;28;20649;-66
2022/02/18 09:57:11;;;;;;;23.40;4.10;;;;;;;;;;5013061;28;20041;-66
2022/02/18 09:59:37;;;;;;;16.87;2.73;;;;;;;;;;5014639;28;20041;-66
2022/02/18 10:02:03;;;;;;;21.60;3.70;;;;;;;;;;5013340;28;20608;-66
2022/02/18 10:04:28;;;;;;;12.60;3.17;;;;;;;;;;5013468;28;20049;-66
2022/02/18 10:06:53;;;;;;;18.90;3.57;;;;;;;;;;5011492;28;20030;-66
2022/02/18 10:09:54;;;;;;;16.13;3.70;;;;;;;;;;5011146;28;20021;-66
2022/02/18 10:12:32;;;;;;;14.87;3.33;;;;;;;;;;4990202;28;20223;-66
2022/02/18 10:15:03;;;;;;;21.20;3.63;;;;;;;;;;4992641;28;20482;-66
2022/02/18 10:17:41;;;;;;;13.60;2.90;;;;;;;;;;4987602;28;20033;-66
2022/02/18 10:20:17;;;;;;;20.13;4.67;;;;;;;;;;4989090;28;20141;-66
2022/02/18 10:23:03;;;;;;;20.77;6.83;;;;;;;;;;4989767;28;20434;-65
2022/02/18 10:25:32;;;;;;;9.17;3.70;;;;;;;;;;4995345;28;20025;-66
2022/02/18 10:27:57;;;;;;;12.63;4.20;;;;;;;;;;4993130;28;20060;-67
2022/02/18 10:30:25;;;;;;;14.90;3.40;;;;;;;;;;4995506;28;20550;-67
2022/02/18 10:32:54;;;;;;;13.23;3.43;;;;;;;;;;4995645;28;20066;-67
2022/02/18 10:35:28;;;;;;;9.17;2.67;;;;;;;;;;4992915;28;20031;-67
2022/02/18 10:37:53;;;;;;;16.33;3.60;;;;;;;;;;4992754;28;20472;-67
2022/02/18 10:40:19;;;;;;;13.63;3.10;;;;;;;;;;4990388;28;20307;-67
2022/02/18 10:42:46;;;;;;;11.23;2.57;;;;;;;;;;4988884;28;20154;-67
2022/02/18 10:45:11;;;;;;;14.73;3.00;;;;;;;;;;4989758;28;20030;-67
2022/02/18 10:47:37;;;;;;;10.77;2.80;;;;;;;;;;5011194;28;20445;-67
2022/02/18 10:50:12;;;;;;;16.10;3.57;;;;;;;;;;5012734;28;20051;-65
2022/02/18 10:52:38;;;;;;;10.37;3.13;;;;;;;;;;5012820;28;20500;-65
2022/02/18 10:55:07;;;;;;;8.87;3.33;;;;;;;;;;5006431;28;20141;-67
2022/02/18 10:57:32;;;;;;;8.53;2.90;;;;;;;;;;5008111;28;20229;-67
2022/02/18 11:00:10;;;;;;;7.47;2.57;;;;;;;;;;5010360;28;20793;-67
2022/02/18 11:02:40;;;;;;;8.30;2.67;;;;;;;;;;5008699;28;20107;-67
2022/02/18 11:05:21;;;;;;;8.70;2.40;;;;;;;;;;5010780;28;20049;-67
2022/02/18 11:07:46;;;;;;;13.63;2.85;;;;;;;;;;5008908;28;20104;-67
2022/02/18 11:10:30;;;;;;;9.47;2.80;;;;;;;;;;5013644;28;20638;-67
2022/02/18 11:12:56;;;;;;;14.57;2.83;;;;;;;;;;5010563;28;20033;-67
2022/02/18 11:15:22;;;;;;;10.17;2.87;;;;;;;;;;5013255;28;20040;-65
2022/02/18 11:17:47;;;;;;;11.80;3.40;;;;;;;;;;5015290;28;20501;-67
2022/02/18 11:20:13;;;;;;;9.53;2.97;;;;;;;;;;5012229;28;20040;-67
2022/02/18 11:22:38;;;;;;;9.70;3.43;;;;;;;;;;5015292;28;20046;-65
2022/02/18 11:25:04;;;;;;;10.80;3.43;;;;;;;;;;5013762;28;20087;-65
2022/02/18 11:27:29;;;;;;;8.40;3.10;;;;;;;;;;5010641;28;20116;-65
2022/02/18 11:29:54;;;;;;;8.37;3.30;;;;;;;;;;5013128;28;20029;-67
2022/02/18 11:32:23;;;;;;;11.93;3.57;;;;;;;;;;5011076;28;20638;-67
2022/02/18 11:35:16;;;;;;;12.83;3.80;;;;;;;;;;5013753;28;20076;-67
2022/02/18 11:37:42;;;;;;;9.10;2.80;;;;;;;;;;5012914;28;20166;-65
2022/02/18 11:40:13;;;;;;;7.27;3.50;;;;;;;;;;5009209;28;20029;-66
2022/02/18 11:42:40;;;;;;;6.93;3.22;;;;;;;;;;5007559;28;20126;-65
2022/02/18 11:45:13;;;;;;;8.50;3.60;;;;;;;;;;5006421;28;20060;-66
2022/02/18 11:47:38;;;;;;;9.10;2.90;;;;;;;;;;5011353;28;20489;-65
2022/02/18 11:50:08;;;;;;;7.03;3.13;;;;;;;;;;5012359;28;20041;-66
2022/02/18 11:52:40;;;;;;;9.53;3.47;;;;;;;;;;5014325;28;20033;-66
2022/02/18 11:55:24;;;;;;;7.75;3.10;;;;;;;;;;5013707;28;20030;-66
2022/02/18 11:57:56;;;;;;;6.10;3.40;;;;;;;;;;5012405;28;20057;-66
2022/02/18 12:00:35;;;;;;;9.57;3.53;;;;;;;;;;5013053;28;20034;-66
2022/02/18 12:03:08;;;;;;;6.70;3.40;;;;;;;;;;5010780;28;20021;-66
2022/02/18 12:05:34;;;;;;;8.83;3.23;;;;;;;;;;5008125;28;20060;-66
2022/02/18 12:07:59;;;;;;;7.00;3.13;;;;;;;;;;5014146;28;20025;-66
2022/02/18 12:10:27;;;;;;;9.60;3.60;;;;;;;;;;5009574;28;20432;-66
2022/02/18 12:13:18;;;;;;;7.60;3.53;;;;;;;;;;5016940;28;20025;-66
2022/02/18 12:15:43;;;;;;;8.33;3.53;;;;;;;;;;5009777;28;20045;-66
2022/02/18 12:18:18;;;;;;;4.90;2.53;;;;;;;;;;5016468;28;20059;-66
2022/02/18 12:20:43;;;;;;;6.90;3.23;;;;;;;;;;5011896;28;20029;-66
2022/02/18 12:23:21;;;;;;;8.17;3.33;;;;;;;;;;5013241;28;20685;-66
2022/02/18 12:25:46;;;;;;;9.03;3.93;;;;;;;;;;5014447;28;20514;-66
2022/02/18 12:28:21;;;;;;;6.50;3.13;;;;;;;;;;5017195;28;20029;-66
2022/02/18 12:31:06;;;;;;;8.03;3.03;;;;;;;;;;5003256;28;20260;-66
2022/02/18 12:33:31;;;;;;;8.83;3.77;;;;;;;;;;5018487;28;20172;-66
2022/02/18 12:35:56;;;;;;;6.07;3.23;;;;;;;;;;5010738;28;20120;-66
2022/02/18 12:38:22;;;;;;;5.27;2.73;;;;;;;;;;5017172;28;20025;-66
2022/02/18 12:40:48;;;;;;;4.43;2.53;;;;;;;;;;5014432;28;20154;-66
2022/02/18 12:43:16;;;;;;;5.83;3.10;;;;;;;;;;5016433;28;20018;-66
2022/02/18 12:45:42;;;;;;;6.23;3.67;;;;;;;;;;5015149;28;20037;-67
2022/02/18 12:48:08;;;;;;;7.37;2.80;;;;;;;;;;5017692;28;20465;-66
2022/02/18 12:50:34;;;;;;;6.67;3.07;;;;;;;;;;5010959;28;20117;-66
2022/02/18 12:53:00;;;;;;;7.50;3.33;;;;;;;;;;5017056;28;20017;-66
2022/02/18 12:55:25;;;;;;;6.00;3.30;;;;;;;;;;5016322;28;20055;-67
2022/02/18 12:57:50;;;;;;;8.27;3.03;;;;;;;;;;5017474;28;20041;-67
2022/02/18 13:00:16;;;;;;;5.30;2.70;;;;;;;;;;5012948;28;20518;-67
2022/02/18 13:02:48;;;;;;;4.53;2.80;;;;;;;;;;5011398;28;20084;-67
2022/02/18 13:05:13;;;;;;;;;;;;;;;;;;5011791;28;20052;-67
2022/02/18 13:07:40;;;;;;;4.38;2.13;;;;;;;;;;5017561;28;19917;-67
2022/02/18 13:10:06;;;;;;;5.67;2.73;;;;;;;;;;5015821;28;20025;-67
2022/02/18 13:12:36;;;;;;;5.67;2.27;;;;;;;;;;5016464;28;20378;-68
2022/02/18 13:15:12;;;;;;;4.83;2.93;;;;;;;;;;5017087;28;20033;-68
2022/02/18 13:17:45;;;;;;;6.43;2.70;;;;;;;;;;5016982;28;20037;-68
2022/02/18 13:20:12;;;;;;;5.27;2.73;;;;;;;;;;5015766;28;20431;-68
2022/02/18 13:22:38;;;;;;;5.10;2.73;;;;;;;;;;5014538;28;20029;-68
2022/02/18 13:25:20;;;;;;;7.23;3.00;;;;;;;;;;5016078;28;20102;-68
2022/02/18 13:27:46;;;;;;;5.43;3.15;;;;;;;;;;5014959;28;20118;-68
2022/02/18 13:30:11;;;;;;;5.07;3.03;;;;;;;;;;5015075;28;20128;-68
2022/02/18 13:32:36;;;;;;;4.37;2.67;;;;;;;;;;5016124;28;20033;-68
2022/02/18 13:35:02;;;;;;;6.40;2.83;;;;;;;;;;5015348;28;20029;-68
2022/02/18 13:37:27;;;;;;;5.17;2.33;;;;;;;;;;5016318;28;20029;-68
2022/02/18 13:39:52;;;;;;;5.97;2.70;;;;;;;;;;5016590;28;20040;-68
2022/02/18 13:42:18;;;;;;;4.53;2.47;;;;;;;;;;5002588;28;20021;-68
2022/02/18 13:45:01;;;;;;;5.20;2.47;;;;;;;;;;5010994;28;20542;-68
2022/02/18 13:47:30;;;;;;;4.50;2.33;;;;;;;;;;5013331;28;20321;-68
2022/02/18 13:49:56;;;;;;;3.33;1.97;;;;;;;;;;5015991;28;20037;-68
2022/02/18 13:52:22;;;;;;;4.37;2.30;;;;;;;;;;5014065;28;20570;-68
2022/02/18 13:54:49;;;;;;;4.37;2.30;;;;;;;;;;5013340;28;20083;-68
2022/02/18 13:57:20;;;;;;;3.67;2.10;;;;;;;;;;5016333;28;20097;-68
2022/02/18 13:59:46;;;;;;;3.50;2.07;;;;;;;;;;5014386;28;20036;-68
2022/02/18 14:02:18;;;;;;;3.43;2.00;;;;;;;;;;5016981;28;20040;-68
2022/02/18 14:04:47;;;;;;;3.77;2.27;;;;;;;;;;5010109;28;20062;-68
2022/02/18 14:07:18;;;;;;;4.47;2.10;;;;;;;;;;5012826;28;20402;-68
2022/02/18 14:09:46;;;;;;;3.50;1.97;;;;;;;;;;5018417;28;20037;-68
2022/02/18 14:12:12;;;;;;;5.73;2.50;;;;;;;;;;5015601;28;20033;-68
2022/02/18 14:14:38;;;;;;;3.47;2.07;;;;;;;;;;5014831;28;20410;-68
2022/02/18 14:17:04;;;;;;;4.47;2.53;;;;;;;;;;5012328;28;20030;-68
2022/02/18 14:19:45;;;;;;;4.63;2.60;;;;;;;;;;5012412;28;20029;-68
2022/02/18 14:22:11;;;;;;;3.90;2.30;;;;;;;;;;5011180;28;20025;-68
2022/02/18 14:24:37;;;;;;;3.83;2.47;;;;;;;;;;5014714;28;20147;-68
2022/02/18 14:27:03;;;;;;;5.27;2.47;;;;;;;;;;5017680;28;20247;-68
2022/02/18 14:29:29;;;;;;;4.83;2.83;;;;;;;;;;5013209;28;20019;-68
2022/02/18 14:31:57;;;;;;;4.47;2.73;;;;;;;;;;5013036;28;20013;-68